Time;durP1;ratioP1;P1;durP2;ratioP2;P2;SDS_P1;SDS_P2;PMS_P1;PMS_P2;Temp;Humidity;BMP_temperature;BMP_pressure;BME280_temperature;BME280_humidity;BME280_pressure;Samples;Min_cycle;Max_cycle;Signal;HPM_P1;HPM_P2
2022/06/19 00:02:16;;;;;;;6.30;1.77;;;17.80;62.90;;;;;;5115699;28;20073;-29
2022/06/19 00:04:42;;;;;;;10.40;2.03;;;17.80;62.70;;;;;;5116486;28;20015;-30
2022/06/19 00:07:09;;;;;;;7.25;1.95;;;17.80;62.60;;;;;;5116839;28;20016;-31
2022/06/19 00:09:35;;;;;;;10.23;2.35;;;17.70;62.40;;;;;;5116435;28;20026;-30
2022/06/19 00:12:00;;;;;;;7.78;1.85;;;17.70;62.40;;;;;;5116452;28;20106;-32
2022/06/19 00:14:27;;;;;;;10.38;2.75;;;17.60;62.40;;;;;;5115330;28;20062;-30
2022/06/19 00:16:53;;;;;;;6.18;1.63;;;17.60;62.50;;;;;;5116277;28;20043;-30
2022/06/19 00:19:19;;;;;;;6.82;2.15;;;17.50;63.10;;;;;;5116229;28;20055;-34
2022/06/19 00:21:45;;;;;;;8.05;1.80;;;17.50;62.40;;;;;;5116037;28;20020;-32
2022/06/19 00:24:11;;;;;;;5.18;1.65;;;17.40;62.50;;;;;;5116450;28;20020;-31
2022/06/19 00:26:37;;;;;;;7.95;1.73;;;17.40;62.60;;;;;;5115703;28;20379;-30
2022/06/19 00:29:02;;;;;;;7.97;2.10;;;17.40;62.70;;;;;;5116013;28;20787;-32
2022/06/19 00:31:28;;;;;;;5.38;1.67;;;17.40;62.80;;;;;;5116238;28;20019;-33
2022/06/19 00:33:55;;;;;;;5.43;2.00;;;17.40;62.90;;;;;;5115977;28;20107;-29
2022/06/19 00:36:21;;;;;;;10.88;1.95;;;17.40;63.00;;;;;;5115869;28;20024;-30
2022/06/19 00:38:47;;;;;;;6.50;1.40;;;17.40;63.10;;;;;;5116106;28;20024;-29
2022/06/19 00:41:14;;;;;;;6.25;1.50;;;17.40;63.10;;;;;;5115696;28;20046;-30
2022/06/19 00:43:56;;;;;;;7.43;2.40;;;17.30;63.10;;;;;;5115691;28;20108;-32
2022/06/19 00:46:43;;;;;;;6.53;2.00;;;17.30;63.30;;;;;;5115668;28;20027;-33
2022/06/19 00:49:11;;;;;;;9.32;2.05;;;17.20;63.40;;;;;;5114319;28;20475;-30
2022/06/19 00:51:37;;;;;;;10.20;2.45;;;17.10;63.60;;;;;;5115524;28;20023;-31
2022/06/19 00:54:05;;;;;;;5.35;1.63;;;17.10;63.80;;;;;;5115557;28;20034;-30
2022/06/19 00:56:31;;;;;;;8.15;2.05;;;17.10;63.90;;;;;;5115711;28;20483;-29
2022/06/19 00:58:57;;;;;;;8.20;2.10;;;17.00;63.90;;;;;;5115447;28;20026;-31
2022/06/19 01:01:24;;;;;;;8.73;1.98;;;17.00;64.00;;;;;;5115625;28;20034;-30
2022/06/19 01:03:55;;;;;;;7.18;1.48;;;17.00;64.20;;;;;;5115360;28;20028;-33
2022/06/19 01:06:23;;;;;;;6.30;2.00;;;16.90;64.20;;;;;;5115538;27;20023;-30
2022/06/19 01:12:12;;;;;;;9.02;1.98;;;17.00;64.30;;;;;;5115317;28;20034;-30
2022/06/19 01:14:40;;;;;;;8.60;1.85;;;16.90;64.40;;;;;;5114340;28;20024;-32
2022/06/19 01:17:07;;;;;;;9.23;1.98;;;16.80;64.30;;;;;;5115075;28;20016;-29
2022/06/19 01:19:41;;;;;;;7.53;1.92;;;16.80;64.50;;;;;;5115297;28;20015;-32
2022/06/19 01:22:33;;;;;;;10.70;2.00;;;16.70;64.50;;;;;;5115400;28;20036;-32
2022/06/19 01:25:10;;;;;;;11.45;2.55;;;16.70;64.50;;;;;;5115141;28;20026;-30
2022/06/19 01:30:33;;;;;;;6.72;1.90;;;16.60;64.00;;;;;;5115064;28;20050;-31
2022/06/19 01:33:01;;;;;;;9.98;2.22;;;16.60;63.80;;;;;;5114808;28;20135;-29
2022/06/19 01:35:30;;;;;;;8.88;2.17;;;16.60;63.70;;;;;;5114712;28;20034;-32
2022/06/19 01:37:57;;;;;;;7.45;1.85;;;16.60;63.50;;;;;;5114056;27;20024;-29
2022/06/19 01:40:27;;;;;;;6.43;1.90;;;16.60;63.50;;;;;;5114535;28;20067;-29
2022/06/19 01:42:54;;;;;;;11.00;2.00;;;16.60;62.90;;;;;;5114746;28;20024;-35
2022/06/19 01:45:20;;;;;;;7.13;1.80;;;16.60;62.90;;;;;;5114907;28;20028;-31
2022/06/19 01:47:46;;;;;;;8.50;1.92;;;16.60;62.00;;;;;;5114685;28;20027;-30
2022/06/19 01:50:16;;;;;;;10.45;2.05;;;16.60;61.60;;;;;;5114425;28;20027;-29
2022/06/19 01:52:42;;;;;;;5.65;1.60;;;16.50;61.30;;;;;;5114359;28;20026;-29
2022/06/19 01:55:11;;;;;;;7.15;1.40;;;16.50;61.30;;;;;;5114641;28;20024;-43
2022/06/19 01:57:42;;;;;;;7.65;1.70;;;16.50;61.00;;;;;;5115303;28;20094;-32
2022/06/19 02:00:26;;;;;;;7.32;1.73;;;16.50;60.60;;;;;;5152237;27;20305;-30
2022/06/19 02:03:06;;;;;;;8.90;1.92;;;16.50;60.40;;;;;;5151961;27;20023;-38
2022/06/19 02:05:32;;;;;;;7.43;1.55;;;16.50;60.00;;;;;;5152073;27;20051;-33
2022/06/19 02:07:58;;;;;;;7.60;2.22;;;16.50;59.80;;;;;;5151795;27;20027;-33
2022/06/19 02:10:24;;;;;;;4.45;1.30;;;16.50;58.90;;;;;;5133472;27;20050;-32
2022/06/19 02:12:50;;;;;;;4.70;1.42;;;16.40;59.10;;;;;;5151772;27;20030;-32
2022/06/19 02:15:16;;;;;;;7.85;1.73;;;16.50;59.10;;;;;;5151688;27;20026;-30
2022/06/19 02:17:49;;;;;;;5.85;1.35;;;16.50;58.80;;;;;;5151922;27;20412;-31
2022/06/19 02:20:14;;;;;;;5.00;1.30;;;16.50;58.50;;;;;;5151976;27;20095;-32
2022/06/19 02:22:40;;;;;;;5.78;2.10;;;16.50;58.10;;;;;;5151629;27;20090;-32
2022/06/19 02:25:06;;;;;;;6.95;1.90;;;16.50;57.40;;;;;;5151535;27;20071;-30
2022/06/19 02:27:34;;;;;;;6.05;1.75;;;16.50;57.50;;;;;;5151693;27;20482;-30
2022/06/19 02:30:01;;;;;;;5.00;1.48;;;16.50;57.70;;;;;;5132942;27;20037;-32
2022/06/19 02:32:46;;;;;;;5.35;1.40;;;16.50;57.70;;;;;;5151350;27;20030;-31
2022/06/19 02:35:24;;;;;;;4.65;1.42;;;16.50;57.80;;;;;;5151433;27;20034;-29
2022/06/19 02:37:53;;;;;;;6.90;1.50;;;16.50;58.00;;;;;;5151198;27;20031;-30
2022/06/19 02:40:33;;;;;;;5.10;1.40;;;16.40;58.40;;;;;;5151167;27;20023;-32
2022/06/19 02:42:59;;;;;;;5.03;1.50;;;16.40;58.90;;;;;;5151276;27;20476;-31
2022/06/19 02:45:28;;;;;;;5.85;2.03;;;16.30;59.30;;;;;;5151384;27;20023;-30
2022/06/19 02:47:55;;;;;;;6.60;1.30;;;16.30;59.70;;;;;;5151695;27;20336;-29
2022/06/19 02:50:25;;;;;;;5.13;1.58;;;16.30;60.00;;;;;;5150943;27;20034;-29
2022/06/19 02:52:51;;;;;;;4.78;1.45;;;16.30;60.20;;;;;;5150898;27;20027;-30
2022/06/19 02:55:19;;;;;;;7.15;1.42;;;16.30;60.20;;;;;;5150948;27;20054;-30
2022/06/19 02:57:46;;;;;;;5.88;1.38;;;16.40;60.30;;;;;;5150821;27;20120;-29
2022/06/19 03:00:21;;;;;;;7.18;1.58;;;16.30;60.20;;;;;;5150680;27;20429;-30
2022/06/19 03:02:52;;;;;;;6.13;1.40;;;16.40;60.20;;;;;;5150725;27;20038;-29
2022/06/19 03:05:25;;;;;;;4.13;1.25;;;16.40;60.20;;;;;;5150968;27;20064;-29
2022/06/19 03:07:51;;;;;;;6.72;1.20;;;16.30;60.10;;;;;;5151248;27;20379;-29
2022/06/19 03:10:17;;;;;;;5.70;1.52;;;16.40;60.40;;;;;;5144785;27;20027;-30
2022/06/19 03:12:44;;;;;;;5.82;1.27;;;16.40;60.50;;;;;;5136808;27;20023;-30
2022/06/19 03:15:11;;;;;;;4.10;1.33;;;16.30;60.60;;;;;;5136715;27;20050;-28
2022/06/19 03:17:36;;;;;;;5.13;1.38;;;16.30;60.70;;;;;;5137070;27;20027;-29
2022/06/19 03:20:03;;;;;;;7.10;1.65;;;16.30;60.70;;;;;;5137073;27;20492;-29
2022/06/19 03:22:28;;;;;;;11.43;1.70;;;16.30;60.80;;;;;;5136808;27;20027;-30
2022/06/19 03:24:54;;;;;;;10.10;1.50;;;16.20;60.60;;;;;;5137227;27;20092;-29
2022/06/19 03:27:20;;;;;;;9.02;1.60;;;16.20;60.60;;;;;;5136829;27;20069;-32
2022/06/19 03:29:45;;;;;;;5.00;1.35;;;16.20;60.50;;;;;;5136795;27;20051;-30
2022/06/19 03:32:13;;;;;;;5.45;1.40;;;16.20;60.30;;;;;;5136399;27;20092;-29
2022/06/19 03:34:40;;;;;;;5.30;1.30;;;16.30;60.30;;;;;;5136589;27;20110;-30
2022/06/19 03:37:06;;;;;;;4.35;1.20;;;16.20;60.20;;;;;;5136535;27;20504;-29
2022/06/19 03:39:32;;;;;;;3.25;1.10;;;16.20;60.20;;;;;;5136155;27;20031;-30
2022/06/19 03:41:58;;;;;;;6.22;1.15;;;16.20;60.10;;;;;;5136496;27;20058;-29
2022/06/19 03:44:24;;;;;;;5.47;1.10;;;16.20;60.10;;;;;;5136219;27;20023;-30
2022/06/19 03:46:49;;;;;;;5.80;1.30;;;16.10;60.30;;;;;;5136225;27;20015;-31
2022/06/19 03:49:15;;;;;;;4.10;1.27;;;16.10;60.50;;;;;;5136208;27;20040;-31
2022/06/19 03:51:41;;;;;;;4.10;1.30;;;16.10;60.90;;;;;;5136156;27;20478;-30
2022/06/19 03:54:08;;;;;;;4.57;1.05;;;16.10;61.40;;;;;;5136083;27;20039;-31
2022/06/19 03:56:35;;;;;;;4.45;1.17;;;16.00;61.60;;;;;;5136602;27;20023;-29
2022/06/19 03:59:00;;;;;;;5.50;1.42;;;16.00;62.10;;;;;;5136241;27;20499;-30
2022/06/19 04:01:37;;;;;;;4.70;1.13;;;16.10;62.70;;;;;;5134615;27;20034;-30
2022/06/19 04:04:04;;;;;;;4.60;1.20;;;16.00;62.90;;;;;;5136146;27;20475;-30
2022/06/19 04:06:33;;;;;;;5.05;1.60;;;16.00;63.20;;;;;;5135831;27;20027;-30
2022/06/19 04:08:59;;;;;;;5.07;1.40;;;16.00;63.50;;;;;;5135936;27;20627;-31
2022/06/19 04:11:27;;;;;;;6.80;1.42;;;15.90;63.60;;;;;;5135976;27;20042;-30
2022/06/19 04:13:53;;;;;;;8.68;2.42;;;15.90;64.00;;;;;;5135887;27;20042;-30
2022/06/19 04:16:25;;;;;;;7.82;1.65;;;15.90;64.50;;;;;;5135837;27;20072;-30
2022/06/19 04:18:52;;;;;;;5.72;1.20;;;15.90;64.40;;;;;;5135799;27;20042;-30
2022/06/19 04:21:20;;;;;;;7.60;1.73;;;16.00;64.30;;;;;;5135407;27;20504;-30
2022/06/19 04:23:46;;;;;;;7.40;1.85;;;16.00;64.40;;;;;;5134928;27;20048;-30
2022/06/19 04:26:15;;;;;;;8.98;1.77;;;16.00;64.60;;;;;;5135803;27;20019;-33
2022/06/19 04:28:41;;;;;;;6.50;1.60;;;16.00;64.70;;;;;;5134078;27;20039;-30
2022/06/19 04:31:07;;;;;;;5.90;1.67;;;16.00;64.70;;;;;;5135546;27;20106;-30
2022/06/19 04:33:37;;;;;;;7.85;1.55;;;16.00;64.50;;;;;;5135273;27;20127;-31
2022/06/19 04:36:03;;;;;;;5.07;1.20;;;16.00;64.40;;;;;;5135432;27;20027;-38
2022/06/19 04:38:29;;;;;;;7.97;1.42;;;16.10;64.30;;;;;;5134994;27;20487;-30
2022/06/19 04:40:55;;;;;;;6.18;1.35;;;16.20;64.10;;;;;;5135041;27;20072;-32
2022/06/19 04:43:21;;;;;;;7.00;1.35;;;16.30;63.90;;;;;;5135355;27;20067;-29
2022/06/19 04:45:47;;;;;;;4.97;1.35;;;16.30;63.60;;;;;;5135167;27;20467;-28
2022/06/19 04:48:13;;;;;;;5.43;1.48;;;16.30;63.40;;;;;;5135170;27;20036;-31
2022/06/19 04:50:39;;;;;;;5.63;1.13;;;16.30;63.10;;;;;;5134914;27;20111;-30
2022/06/19 04:53:05;;;;;;;8.07;1.30;;;16.40;62.60;;;;;;5135265;27;20031;-29
2022/06/19 04:55:31;;;;;;;5.15;1.25;;;16.40;62.20;;;;;;5135235;27;20519;-29
2022/06/19 04:58:03;;;;;;;7.93;1.30;;;16.40;61.40;;;;;;5134730;27;20371;-29
2022/06/19 05:00:30;;;;;;;7.20;1.40;;;16.50;61.40;;;;;;5134918;27;20045;-30
2022/06/19 05:02:55;;;;;;;4.57;1.13;;;16.50;61.40;;;;;;5134551;27;20024;-29
2022/06/19 05:05:22;;;;;;;5.53;1.30;;;16.60;61.20;;;;;;5134566;27;20027;-30
2022/06/19 05:07:48;;;;;;;7.75;1.38;;;16.60;61.10;;;;;;5134913;27;20027;-30
2022/06/19 05:10:14;;;;;;;3.15;1.30;;;16.70;61.00;;;;;;5135027;27;20080;-30
2022/06/19 05:12:40;;;;;;;2.40;0.98;;;16.70;60.90;;;;;;5134735;27;20029;-30
2022/06/19 05:15:07;;;;;;;6.15;1.40;;;16.70;60.90;;;;;;5134898;27;20154;-31
2022/06/19 05:17:33;;;;;;;3.65;1.25;;;16.80;60.90;;;;;;5134688;27;20052;-35
2022/06/19 05:19:58;;;;;;;5.00;1.30;;;16.90;61.50;;;;;;5134258;27;20118;-29
2022/06/19 05:22:24;;;;;;;5.85;1.08;;;16.90;60.70;;;;;;5134533;27;20069;-30
2022/06/19 05:24:50;;;;;;;5.53;1.02;;;17.00;60.60;;;;;;5132984;27;20062;-29
2022/06/19 05:27:16;;;;;;;5.53;1.27;;;17.00;60.50;;;;;;5134512;27;20071;-30
2022/06/19 05:29:42;;;;;;;6.18;1.38;;;17.10;60.30;;;;;;5134058;27;20023;-29
2022/06/19 05:32:08;;;;;;;4.28;1.10;;;17.20;60.10;;;;;;5134050;27;20030;-29
2022/06/19 05:34:35;;;;;;;2.25;0.90;;;17.20;60.00;;;;;;5133875;27;20031;-30
2022/06/19 05:37:01;;;;;;;2.53;0.90;;;17.30;59.90;;;;;;5132853;27;20028;-32
2022/06/19 05:39:27;;;;;;;5.28;1.10;;;17.40;59.70;;;;;;5134057;27;20066;-33
2022/06/19 05:41:54;;;;;;;4.22;1.15;;;17.50;59.50;;;;;;5133994;27;20026;-32
2022/06/19 05:44:20;;;;;;;3.22;0.93;;;17.70;59.20;;;;;;5134456;27;20031;-30
2022/06/19 05:46:49;;;;;;;3.05;1.00;;;17.70;58.70;;;;;;5133888;27;20027;-29
2022/06/19 05:49:15;;;;;;;2.78;1.20;;;17.80;58.10;;;;;;5134204;27;20027;-30
2022/06/19 05:51:41;;;;;;;3.40;1.05;;;17.80;57.90;;;;;;5133756;27;20479;-29
2022/06/19 05:54:06;;;;;;;4.53;1.13;;;17.90;58.20;;;;;;5133794;27;20035;-29
2022/06/19 05:56:32;;;;;;;5.68;1.25;;;17.90;57.60;;;;;;5133869;27;20034;-30
2022/06/19 05:58:58;;;;;;;4.05;1.55;;;17.90;57.50;;;;;;5133802;28;20043;-32
2022/06/19 06:01:25;;;;;;;4.47;1.10;;;18.00;57.30;;;;;;5134365;28;20106;-30
2022/06/19 06:03:52;;;;;;;4.57;1.05;;;18.00;57.30;;;;;;5134034;28;20416;-30
2022/06/19 06:06:21;;;;;;;6.05;1.27;;;18.10;57.40;;;;;;5133851;28;20478;-31
2022/06/19 06:08:48;;;;;;;2.50;0.90;;;18.20;57.00;;;;;;5133754;28;20027;-33
2022/06/19 06:11:14;;;;;;;4.75;0.98;;;18.30;56.80;;;;;;5133722;28;20035;-31
2022/06/19 06:13:40;;;;;;;5.93;1.10;;;18.30;56.20;;;;;;5133687;28;20088;-31
2022/06/19 06:16:07;;;;;;;3.17;0.80;;;18.40;56.00;;;;;;5133754;28;20563;-29
2022/06/19 06:18:33;;;;;;;5.53;1.13;;;18.50;55.70;;;;;;5133679;27;20027;-31
2022/06/19 06:21:02;;;;;;;5.38;1.13;;;18.60;54.60;;;;;;5133618;28;20048;-39
2022/06/19 06:23:28;;;;;;;3.35;1.00;;;18.60;54.20;;;;;;5133978;28;20038;-29
2022/06/19 06:26:02;;;;;;;2.55;0.90;;;18.60;54.10;;;;;;5133588;28;20543;-29
2022/06/19 06:28:29;;;;;;;5.10;0.93;;;18.80;53.90;;;;;;5133595;28;20039;-29
2022/06/19 06:30:55;;;;;;;3.05;0.88;;;18.70;53.20;;;;;;5133526;28;20099;-29
2022/06/19 06:33:21;;;;;;;3.17;0.90;;;18.70;53.10;;;;;;5133700;28;20023;-29
2022/06/19 06:35:47;;;;;;;3.67;0.75;;;18.70;52.90;;;;;;5133462;28;20034;-29
2022/06/19 06:38:12;;;;;;;4.25;0.77;;;18.70;52.70;;;;;;5133807;28;20031;-30
2022/06/19 06:40:38;;;;;;;4.10;1.00;;;18.60;52.60;;;;;;5133419;28;20027;-34
2022/06/19 06:43:03;;;;;;;2.60;0.70;;;18.60;52.60;;;;;;5133708;28;20089;-34
2022/06/19 06:45:29;;;;;;;2.28;0.90;;;18.60;52.60;;;;;;5134941;27;20032;-29
2022/06/19 06:47:55;;;;;;;2.97;1.00;;;18.50;52.70;;;;;;5137796;27;20019;-29
2022/06/19 06:50:21;;;;;;;3.63;0.85;;;18.40;52.70;;;;;;5135266;27;20023;-30
2022/06/19 06:52:47;;;;;;;2.63;0.75;;;18.40;52.90;;;;;;5136530;27;20126;-30
2022/06/19 06:55:13;;;;;;;2.90;0.80;;;18.40;53.00;;;;;;5136622;27;20027;-29
2022/06/19 06:57:39;;;;;;;3.60;0.90;;;18.30;53.40;;;;;;5135030;27;20100;-30
2022/06/19 07:00:08;;;;;;;2.30;0.80;;;18.30;53.90;;;;;;5136766;27;20051;-29
2022/06/19 07:02:33;;;;;;;3.83;0.90;;;18.30;54.30;;;;;;5137011;27;20027;-32
2022/06/19 07:04:59;;;;;;;3.45;0.88;;;18.30;54.60;;;;;;5136834;27;20109;-29
2022/06/19 07:07:25;;;;;;;3.70;1.10;;;18.20;55.00;;;;;;5136930;27;20038;-29
2022/06/19 07:09:50;;;;;;;5.47;1.20;;;18.10;55.80;;;;;;5136860;27;20122;-30
2022/06/19 07:12:16;;;;;;;3.53;1.08;;;18.00;56.50;;;;;;5137212;27;20076;-29
2022/06/19 07:14:41;;;;;;;4.55;1.17;;;17.90;57.50;;;;;;5136975;27;20050;-29
2022/06/19 07:17:07;;;;;;;3.30;1.10;;;17.70;59.00;;;;;;5135419;27;20044;-29
2022/06/19 07:19:33;;;;;;;4.03;1.05;;;17.60;59.20;;;;;;5136686;27;20031;-35
2022/06/19 07:21:58;;;;;;;3.70;1.40;;;17.60;60.00;;;;;;5136645;27;20025;-31
2022/06/19 07:24:25;;;;;;;4.78;1.30;;;17.50;60.50;;;;;;5136732;27;20027;-30
2022/06/19 07:26:51;;;;;;;3.75;1.40;;;17.40;61.10;;;;;;5136744;27;20521;-29
2022/06/19 07:29:17;;;;;;;3.70;1.42;;;17.30;61.60;;;;;;5136808;27;20110;-29
2022/06/19 07:31:42;;;;;;;5.18;1.40;;;17.10;62.50;;;;;;5135111;27;20119;-32
2022/06/19 07:34:08;;;;;;;5.82;1.50;;;16.90;63.50;;;;;;5136594;27;20487;-30
2022/06/19 07:36:34;;;;;;;5.88;1.17;;;16.80;64.30;;;;;;5136480;27;20106;-31
2022/06/19 07:39:00;;;;;;;6.22;1.65;;;16.70;65.40;;;;;;5136120;27;20331;-30
2022/06/19 07:41:25;;;;;;;6.85;1.30;;;16.60;66.10;;;;;;5136184;27;20026;-31
2022/06/19 07:43:51;;;;;;;5.85;1.85;;;16.60;66.90;;;;;;5136740;27;20019;-30
2022/06/19 07:46:18;;;;;;;6.82;1.40;;;16.50;67.50;;;;;;5136480;27;20019;-29
2022/06/19 07:51:29;;;;;;;5.80;1.80;;;16.60;68.60;;;;;;5136359;27;20037;-29
2022/06/19 07:53:54;;;;;;;4.50;1.27;;;16.60;69.20;;;;;;5136111;27;20478;-29
2022/06/19 07:56:20;;;;;;;6.85;1.65;;;16.60;69.70;;;;;;5135920;27;20452;-29
2022/06/19 07:58:46;;;;;;;7.00;1.52;;;16.60;70.10;;;;;;5135715;27;20508;-28
2022/06/19 08:01:12;;;;;;;6.65;1.25;;;16.70;70.40;;;;;;5136150;27;20019;-29
2022/06/19 08:03:38;;;;;;;10.40;1.70;;;16.70;70.60;;;;;;5136359;27;20066;-34
2022/06/19 08:06:04;;;;;;;5.22;1.60;;;16.70;71.50;;;;;;5136007;27;20048;-29
2022/06/19 08:08:32;;;;;;;9.27;1.58;;;16.60;71.20;;;;;;5135991;27;20081;-33
2022/06/19 08:10:58;;;;;;;5.32;1.60;;;16.60;71.60;;;;;;5135785;27;20026;-31
2022/06/19 08:13:29;;;;;;;5.65;1.45;;;16.40;72.70;;;;;;5135948;27;20038;-29
2022/06/19 08:16:04;;;;;;;6.25;1.40;;;16.20;73.60;;;;;;5135828;27;20479;-30
2022/06/19 08:18:32;;;;;;;7.38;1.30;;;16.00;74.00;;;;;;5135837;27;20439;-27
2022/06/19 08:20:58;;;;;;;5.40;1.80;;;15.90;74.40;;;;;;5135582;27;20019;-30
2022/06/19 08:23:23;;;;;;;4.60;1.40;;;15.80;74.90;;;;;;5135623;27;20030;-30
2022/06/19 08:25:50;;;;;;;7.72;1.67;;;15.70;75.70;;;;;;5135725;27;20016;-32
2022/06/19 08:28:20;;;;;;;5.72;1.42;;;15.60;75.90;;;;;;5134499;27;20092;-28
2022/06/19 08:30:46;;;;;;;6.95;1.73;;;15.60;76.50;;;;;;5135631;27;20083;-30
2022/06/19 08:33:12;;;;;;;5.50;1.70;;;15.50;76.40;;;;;;5135458;27;20046;-27
2022/06/19 08:35:47;;;;;;;6.30;2.08;;;15.50;76.90;;;;;;5135567;27;20012;-29
2022/06/19 08:38:21;;;;;;;7.05;1.50;;;15.50;77.10;;;;;;5135129;27;20027;-28
2022/06/19 08:41:13;;;;;;;7.03;1.88;;;15.40;77.30;;;;;;5135701;27;20151;-28
2022/06/19 08:44:02;;;;;;;6.97;1.63;;;15.50;77.70;;;;;;5135291;27;20099;-29
2022/06/19 08:46:46;;;;;;;7.97;1.50;;;15.60;76.90;;;;;;5135662;27;20033;-27
2022/06/19 08:49:30;;;;;;;5.82;1.27;;;15.70;76.50;;;;;;5135229;27;20110;-46
2022/06/19 08:52:20;;;;;;;5.35;1.30;;;15.80;76.40;;;;;;5135183;27;20031;-47
2022/06/19 08:55:10;;;;;;;4.30;1.33;;;15.80;76.20;;;;;;5133437;27;20034;-48
2022/06/19 08:57:50;;;;;;;6.80;1.45;;;15.80;76.10;;;;;;5135389;27;20057;-48
2022/06/19 09:00:23;;;;;;;6.05;1.33;;;15.80;76.20;;;;;;5134790;27;20046;-46
2022/06/19 09:03:17;;;;;;;5.10;1.30;;;15.80;76.30;;;;;;5134715;27;20381;-43
2022/06/19 09:06:21;;;;;;;6.38;1.50;;;15.90;75.90;;;;;;5111796;27;20110;-43
2022/06/19 09:08:50;;;;;;;;;;;15.90;75.50;;;;;;5071464;28;20068;-43
2022/06/19 09:11:46;;;;;;;5.85;1.40;;;15.90;75.20;;;;;;5123851;27;20381;-46
2022/06/19 09:14:18;;;;;;;5.57;1.48;;;16.00;75.40;;;;;;5134469;27;20019;-42
2022/06/19 09:16:46;;;;;;;6.95;1.45;;;16.10;75.40;;;;;;5134412;27;20042;-41
2022/06/19 09:19:33;;;;;;;5.28;1.38;;;16.10;75.60;;;;;;5134235;27;20083;-40
2022/06/19 09:22:06;;;;;;;5.78;1.83;;;16.10;75.70;;;;;;5134888;27;20409;-41
2022/06/19 09:24:48;;;;;;;5.63;1.33;;;16.20;75.50;;;;;;5134508;27;20019;-41
2022/06/19 09:27:15;;;;;;;5.80;1.48;;;16.20;75.50;;;;;;5134285;27;20019;-41
2022/06/19 09:29:52;;;;;;;5.60;1.60;;;16.30;75.70;;;;;;5134130;27;20027;-43
2022/06/19 09:32:34;;;;;;;7.38;1.77;;;16.30;75.90;;;;;;5134980;27;20023;-43
2022/06/19 09:35:09;;;;;;;4.78;1.23;;;16.30;76.10;;;;;;5134398;27;20031;-43
2022/06/19 09:37:40;;;;;;;5.95;1.58;;;16.40;75.90;;;;;;5134072;27;20045;-40
2022/06/19 09:40:29;;;;;;;4.43;1.40;;;16.50;75.60;;;;;;5132838;27;20092;-42
2022/06/19 09:43:07;;;;;;;4.78;1.30;;;16.50;75.30;;;;;;5134333;27;20102;-42
2022/06/19 09:46:06;;;;;;;4.50;1.20;;;16.60;75.10;;;;;;5133935;27;20022;-41
2022/06/19 09:48:44;;;;;;;5.80;1.17;;;16.60;74.50;;;;;;5109661;27;20042;-42
2022/06/19 09:51:15;;;;;;;3.67;1.30;;;16.70;74.20;;;;;;5134129;27;20027;-45
2022/06/19 09:53:57;;;;;;;3.83;0.98;;;16.80;73.60;;;;;;5133887;27;20065;-41
2022/06/19 09:56:26;;;;;;;2.65;0.90;;;16.90;73.20;;;;;;5133915;27;20019;-41
2022/06/19 10:02:42;;;;;;;3.17;1.05;;;17.10;72.90;;;;;;5120370;28;20038;-42
2022/06/19 10:05:15;;;;;;;3.40;0.90;;;17.30;72.60;;;;;;5125108;28;20030;-42
2022/06/19 10:07:43;;;;;;;;;;;17.50;71.80;;;;;;5134129;27;20096;-42
2022/06/19 10:10:33;;;;;;;3.00;0.70;;;17.50;71.30;;;;;;5133970;27;19907;-49
2022/06/19 10:13:01;;;;;;;3.65;1.10;;;17.50;70.70;;;;;;5132666;28;20053;-45
2022/06/19 10:15:31;;;;;;;3.28;1.00;;;17.70;70.40;;;;;;5134037;28;20118;-41
2022/06/19 10:18:13;;;;;;;2.55;0.80;;;17.80;69.60;;;;;;5133860;28;20039;-40
2022/06/19 10:21:00;;;;;;;2.33;0.73;;;18.00;69.00;;;;;;5135551;27;20027;-44
2022/06/19 10:23:25;;;;;;;4.30;1.02;;;18.10;68.90;;;;;;5137818;27;20027;-40
2022/06/19 10:26:18;;;;;;;4.68;1.00;;;18.30;68.50;;;;;;5137798;27;20049;-41
2022/06/19 10:28:53;;;;;;;2.95;0.80;;;18.40;68.00;;;;;;5138108;27;20099;-39
2022/06/19 10:31:45;;;;;;;2.22;0.85;;;18.50;67.50;;;;;;5138059;27;20035;-41
2022/06/19 10:34:43;;;;;;;2.90;1.00;;;18.50;67.10;;;;;;5137908;27;20044;-41
2022/06/19 10:37:14;;;;;;;3.05;0.88;;;18.60;67.00;;;;;;5137902;27;20031;-42
2022/06/19 10:40:02;;;;;;;1.83;1.00;;;18.70;66.70;;;;;;5137790;27;20027;-39
2022/06/19 10:42:31;;;;;;;2.90;1.00;;;18.70;65.70;;;;;;5137475;27;20121;-40
2022/06/19 10:45:21;;;;;;;3.00;1.13;;;18.70;65.70;;;;;;5137582;27;20035;-41
2022/06/19 10:48:01;;;;;;;2.33;1.00;;;18.70;65.50;;;;;;5137719;27;20106;-40
2022/06/19 10:50:44;;;;;;;3.55;1.15;;;18.70;65.40;;;;;;5137398;27;20043;-40
2022/06/19 10:53:51;;;;;;;3.25;1.00;;;18.70;65.40;;;;;;5137653;27;20027;-39
2022/06/19 10:56:53;;;;;;;3.47;1.30;;;18.70;65.60;;;;;;5074326;28;20032;-41
2022/06/19 10:59:21;;;;;;;4.53;1.30;;;18.80;65.70;;;;;;5137124;27;20038;-44
2022/06/19 11:05:05;;;;;;;1.98;1.17;;;18.90;65.50;;;;;;5137273;27;20075;-42
2022/06/19 11:07:31;;;;;;;3.72;1.27;;;18.90;65.60;;;;;;5136998;27;20073;-43
2022/06/19 11:10:08;;;;;;;5.53;1.33;;;18.90;65.90;;;;;;5136962;27;20046;-41
2022/06/19 11:12:39;;;;;;;3.08;1.30;;;18.90;66.10;;;;;;5137292;27;20119;-41
2022/06/19 11:15:09;;;;;;;3.75;1.50;;;19.00;66.10;;;;;;5136784;27;20489;-42
2022/06/19 11:17:36;;;;;;;3.45;1.25;;;19.10;66.00;;;;;;5137012;27;20031;-41
2022/06/19 11:20:16;;;;;;;7.07;1.67;;;19.20;66.00;;;;;;5136736;27;20114;-42
2022/06/19 11:22:45;;;;;;;4.03;1.58;;;19.30;65.80;;;;;;5137025;27;20042;-43
2022/06/19 11:25:20;;;;;;;3.67;1.33;;;19.30;65.70;;;;;;5136633;27;20406;-40
2022/06/19 11:28:11;;;;;;;3.50;1.27;;;19.30;65.50;;;;;;5137149;27;20148;-42
2022/06/19 11:30:50;;;;;;;4.18;1.38;;;19.30;65.50;;;;;;5136619;27;20027;-43
2022/06/19 11:33:31;;;;;;;4.20;1.52;;;19.30;65.50;;;;;;5135274;27;20031;-40
2022/06/19 11:36:01;;;;;;;4.95;1.52;;;19.40;65.70;;;;;;5136602;27;20088;-41
2022/06/19 11:38:49;;;;;;;4.35;1.45;;;19.40;65.80;;;;;;5136469;27;20050;-44
2022/06/19 11:41:15;;;;;;;4.85;1.63;;;19.40;66.00;;;;;;5136791;27;20026;-41
2022/06/19 11:43:40;;;;;;;4.03;1.65;;;19.30;66.10;;;;;;5136468;27;20386;-41
2022/06/19 11:46:15;;;;;;;4.97;2.10;;;19.30;66.20;;;;;;5136448;27;20022;-42
2022/06/19 11:48:41;;;;;;;4.20;1.80;;;19.30;66.20;;;;;;5136603;27;20368;-41
2022/06/19 11:51:21;;;;;;;5.18;1.83;;;19.30;66.20;;;;;;5135042;27;20054;-40
2022/06/19 11:53:53;;;;;;;4.82;1.60;;;19.30;66.60;;;;;;5136478;27;20359;-42
2022/06/19 11:56:34;;;;;;;4.53;1.50;;;19.40;66.30;;;;;;5136134;27;20107;-44
2022/06/19 11:59:33;;;;;;;3.97;1.35;;;19.40;65.80;;;;;;5135144;27;20510;-44
2022/06/19 12:01:59;;;;;;;2.05;1.15;;;19.30;65.90;;;;;;5135044;27;20047;-28
2022/06/19 12:04:34;;;;;;;4.35;1.30;;;19.40;65.80;;;;;;5136362;27;20033;-28
2022/06/19 12:07:16;;;;;;;3.08;1.42;;;19.70;65.50;;;;;;5135959;27;20049;-31
2022/06/19 12:09:51;;;;;;;3.75;1.50;;;19.90;64.80;;;;;;5136353;27;20031;-29
2022/06/19 12:12:20;;;;;;;4.15;1.38;;;20.00;64.30;;;;;;5136170;27;20030;-29
2022/06/19 12:15:03;;;;;;;2.30;1.13;;;20.10;64.80;;;;;;5135857;27;20501;-29
2022/06/19 12:17:31;;;;;;;;;;;20.10;64.20;;;;;;5136214;27;20034;-30
2022/06/19 12:19:59;;;;;;;3.72;1.58;;;20.20;63.90;;;;;;5135722;27;20362;-29
2022/06/19 12:22:48;;;;;;;3.92;1.42;;;20.20;63.90;;;;;;5135823;27;20498;-32
2022/06/19 12:25:13;;;;;;;4.65;1.40;;;20.00;64.00;;;;;;5105677;27;20110;-30
2022/06/19 12:28:04;;;;;;;4.50;1.30;;;19.90;64.30;;;;;;5135611;27;20107;-33
2022/06/19 12:31:02;;;;;;;7.32;2.10;;;19.70;64.70;;;;;;5135737;27;20027;-29
2022/06/19 12:33:48;;;;;;;6.80;1.80;;;19.50;65.30;;;;;;5122932;27;20051;-30
2022/06/19 12:36:28;;;;;;;9.25;2.05;;;19.30;65.80;;;;;;5135455;27;20103;-30
2022/06/19 12:38:54;;;;;;;9.52;2.00;;;19.20;66.40;;;;;;5135360;27;20031;-28
2022/06/19 12:41:41;;;;;;;5.20;1.63;;;18.90;66.80;;;;;;5135790;27;20485;-29
2022/06/19 12:44:43;;;;;;;5.30;1.60;;;18.70;67.10;;;;;;5134559;27;20054;-29
2022/06/19 12:47:28;;;;;;;4.38;1.80;;;18.60;67.30;;;;;;5135265;27;20106;-29
2022/06/19 12:50:16;;;;;;;5.03;1.50;;;18.50;67.40;;;;;;5135515;27;20074;-28
2022/06/19 12:53:12;;;;;;;3.78;1.40;;;18.60;67.50;;;;;;5135400;27;20042;-31
2022/06/19 12:55:47;;;;;;;4.28;1.65;;;18.70;67.30;;;;;;5135376;27;20027;-32
2022/06/19 12:58:27;;;;;;;6.53;1.80;;;19.00;66.90;;;;;;5135286;27;20068;-32
2022/06/19 13:01:03;;;;;;;3.90;1.65;;;19.20;66.30;;;;;;5135087;27;20419;-30
2022/06/19 13:03:41;;;;;;;4.70;1.60;;;19.40;66.10;;;;;;5134790;27;20074;-33
2022/06/19 13:06:40;;;;;;;4.25;1.45;;;19.50;65.80;;;;;;5135228;27;20215;-27
2022/06/19 13:09:27;;;;;;;7.80;1.60;;;19.60;65.50;;;;;;5134759;27;20031;-29
2022/06/19 13:12:44;;;;;;;5.97;1.60;;;19.70;65.00;;;;;;5135007;27;20084;-29
2022/06/19 13:15:42;;;;;;;3.28;1.35;;;19.80;65.00;;;;;;5071598;28;20424;-29
2022/06/19 13:18:08;;;;;;;5.13;1.50;;;19.90;64.90;;;;;;5071444;28;20423;-29
2022/06/19 13:20:41;;;;;;;6.18;2.03;;;19.80;64.80;;;;;;5120511;27;20052;-29
2022/06/19 13:23:34;;;;;;;5.25;1.42;;;19.70;64.90;;;;;;5134534;27;20518;-33
2022/06/19 13:29:31;;;;;;;2.90;1.33;;;19.50;65.20;;;;;;5134891;27;20054;-30
2022/06/19 13:32:22;;;;;;;5.20;1.48;;;19.30;65.40;;;;;;5134451;27;20064;-29